DAAJ/DJG METAR and TAF weather

Enter ICAO airport designator
Station Type Date Time Source
DAAJ METAR 2019/10/15 18:00 UTC NOAA

DAAJ 151800Z 21005KT CAVOK 28/M01 Q1017


Station Type Date Time Source
DAAJ Decoded METAR 2019/10/15 18:00 UTC NOAA

Djanet, Algeria (DAAJ) 24-33N 009-28E 1054M
Oct 15, 2019 - 02:00 PM EDT / 2019.10.15 1800 UTC
Wind: from the SSW (210 degrees) at 6 MPH (5 KT):0
Visibility: greater than 7 mile(s):0
Temperature: 82 F (28 C)
Dew Point: 30 F (-1 C)
Relative Humidity: 15%
Pressure (altimeter): 30.03 in. Hg (1017 hPa)
ob: DAAJ 151800Z 21005KT CAVOK 28/M01 Q1017
cycle: 18

Station Type Date Time Source
DAAJ TAF 2019/10/15 18:33 UTC NOAA

TAF DAAJ 151700Z 1518/1618 25006KT CAVOK
BECMG 1520/1522 08010KT
BECMG 1606/1608 VRB02KT
BECMG 1609/1611 20010KT

Example: see airport list